sensor_id;sensor_type;location;lat;lon;timestamp;pressure;altitude;pressure_sealevel;temperature;humidity
10470;BME280;5282;47.052;15.458;2023-06-22T00:02:21;97887.34;;;21.03;100.00
10470;BME280;5282;47.052;15.458;2023-06-22T00:04:48;97885.03;;;21.00;100.00
10470;BME280;5282;47.052;15.458;2023-06-22T00:07:15;97884.22;;;20.99;100.00
10470;BME280;5282;47.052;15.458;2023-06-22T00:09:43;97882.91;;;21.02;100.00
10470;BME280;5282;47.052;15.458;2023-06-22T00:12:10;97886.94;;;20.99;100.00
10470;BME280;5282;47.052;15.458;2023-06-22T00:14:37;97883.84;;;20.95;100.00
10470;BME280;5282;47.052;15.458;2023-06-22T00:17:05;97889.75;;;20.92;100.00
10470;BME280;5282;47.052;15.458;2023-06-22T00:19:32;97882.78;;;20.96;100.00
10470;BME280;5282;47.052;15.458;2023-06-22T00:22:01;97877.50;;;20.95;100.00
10470;BME280;5282;47.052;15.458;2023-06-22T00:24:29;97882.47;;;20.86;100.00
10470;BME280;5282;47.052;15.458;2023-06-22T00:26:57;97879.94;;;20.85;100.00
10470;BME280;5282;47.052;15.458;2023-06-22T00:29:24;97876.81;;;20.81;100.00
10470;BME280;5282;47.052;15.458;2023-06-22T00:31:51;97883.97;;;20.82;100.00
10470;BME280;5282;47.052;15.458;2023-06-22T00:34:18;97877.19;;;20.85;100.00
10470;BME280;5282;47.052;15.458;2023-06-22T00:36:45;97879.25;;;20.89;100.00
10470;BME280;5282;47.052;15.458;2023-06-22T00:39:13;97878.44;;;20.89;100.00
10470;BME280;5282;47.052;15.458;2023-06-22T00:41:40;97883.59;;;20.78;100.00
10470;BME280;5282;47.052;15.458;2023-06-22T00:44:08;97882.56;;;20.73;100.00
10470;BME280;5282;47.052;15.458;2023-06-22T00:46:35;97880.59;;;20.80;100.00
10470;BME280;5282;47.052;15.458;2023-06-22T00:49:02;97868.88;;;20.73;100.00
10470;BME280;5282;47.052;15.458;2023-06-22T00:51:31;97864.88;;;20.75;100.00
10470;BME280;5282;47.052;15.458;2023-06-22T00:53:58;97871.00;;;20.71;100.00
10470;BME280;5282;47.052;15.458;2023-06-22T00:56:25;97869.66;;;20.80;100.00
10470;BME280;5282;47.052;15.458;2023-06-22T00:58:55;97866.34;;;20.71;100.00
10470;BME280;5282;47.052;15.458;2023-06-22T01:01:24;97865.97;;;20.68;100.00
10470;BME280;5282;47.052;15.458;2023-06-22T01:03:51;97859.66;;;20.67;100.00
10470;BME280;5282;47.052;15.458;2023-06-22T01:06:34;97853.88;;;20.57;100.00
10470;BME280;5282;47.052;15.458;2023-06-22T01:09:12;97860.59;;;20.54;100.00
10470;BME280;5282;47.052;15.458;2023-06-22T01:11:45;97856.44;;;20.52;100.00
10470;BME280;5282;47.052;15.458;2023-06-22T01:14:15;97856.22;;;20.53;100.00
10470;BME280;5282;47.052;15.458;2023-06-22T01:16:48;97853.94;;;20.50;100.00
10470;BME280;5282;47.052;15.458;2023-06-22T01:19:27;97858.06;;;20.59;100.00
10470;BME280;5282;47.052;15.458;2023-06-22T01:21:56;97863.19;;;20.49;100.00
10470;BME280;5282;47.052;15.458;2023-06-22T01:24:30;97871.22;;;20.44;100.00
10470;BME280;5282;47.052;15.458;2023-06-22T01:27:09;97866.81;;;20.43;100.00
10470;BME280;5282;47.052;15.458;2023-06-22T01:29:43;97866.03;;;20.35;100.00
10470;BME280;5282;47.052;15.458;2023-06-22T01:32:11;97865.75;;;20.44;100.00
10470;BME280;5282;47.052;15.458;2023-06-22T01:34:38;97870.44;;;20.37;100.00
10470;BME280;5282;47.052;15.458;2023-06-22T01:37:07;97869.66;;;20.29;100.00
10470;BME280;5282;47.052;15.458;2023-06-22T01:39:34;97872.66;;;20.21;100.00
10470;BME280;5282;47.052;15.458;2023-06-22T01:42:02;97869.78;;;20.16;100.00
10470;BME280;5282;47.052;15.458;2023-06-22T01:44:30;97875.84;;;20.18;100.00
10470;BME280;5282;47.052;15.458;2023-06-22T01:46:59;97869.50;;;20.24;100.00
10470;BME280;5282;47.052;15.458;2023-06-22T01:49:27;97877.31;;;20.21;100.00
10470;BME280;5282;47.052;15.458;2023-06-22T01:51:55;97878.00;;;20.09;100.00
10470;BME280;5282;47.052;15.458;2023-06-22T01:54:22;97874.97;;;19.92;100.00
10470;BME280;5282;47.052;15.458;2023-06-22T01:56:50;97886.13;;;19.84;100.00
10470;BME280;5282;47.052;15.458;2023-06-22T01:59:20;97886.38;;;19.76;100.00
10470;BME280;5282;47.052;15.458;2023-06-22T02:01:54;97875.66;;;19.74;100.00
10470;BME280;5282;47.052;15.458;2023-06-22T02:04:29;97878.38;;;19.81;100.00
10470;BME280;5282;47.052;15.458;2023-06-22T02:07:00;97871.63;;;19.83;100.00
10470;BME280;5282;47.052;15.458;2023-06-22T02:09:31;97877.50;;;19.80;100.00
10470;BME280;5282;47.052;15.458;2023-06-22T02:12:00;97885.94;;;19.79;100.00
10470;BME280;5282;47.052;15.458;2023-06-22T02:14:30;97877.94;;;19.84;100.00
10470;BME280;5282;47.052;15.458;2023-06-22T02:16:57;97880.03;;;19.82;100.00
10470;BME280;5282;47.052;15.458;2023-06-22T02:19:27;97884.69;;;19.74;100.00
10470;BME280;5282;47.052;15.458;2023-06-22T02:21:58;97884.91;;;19.73;100.00
10470;BME280;5282;47.052;15.458;2023-06-22T02:24:25;97892.72;;;19.69;100.00
10470;BME280;5282;47.052;15.458;2023-06-22T02:26:52;97898.19;;;19.69;100.00
10470;BME280;5282;47.052;15.458;2023-06-22T02:29:19;97895.19;;;19.78;100.00
10470;BME280;5282;47.052;15.458;2023-06-22T02:31:46;97897.50;;;19.81;100.00
10470;BME280;5282;47.052;15.458;2023-06-22T02:34:14;97899.38;;;19.87;100.00
10470;BME280;5282;47.052;15.458;2023-06-22T02:36:45;97895.56;;;19.81;100.00
10470;BME280;5282;47.052;15.458;2023-06-22T02:39:17;97902.75;;;19.76;100.00
10470;BME280;5282;47.052;15.458;2023-06-22T02:41:44;97899.84;;;19.70;100.00
10470;BME280;5282;47.052;15.458;2023-06-22T02:44:11;97894.31;;;19.84;100.00
10470;BME280;5282;47.052;15.458;2023-06-22T02:46:38;97894.25;;;19.97;100.00
10470;BME280;5282;47.052;15.458;2023-06-22T02:49:05;97892.66;;;19.83;100.00
10470;BME280;5282;47.052;15.458;2023-06-22T02:51:33;97893.09;;;19.73;100.00
10470;BME280;5282;47.052;15.458;2023-06-22T02:54:02;97897.56;;;19.61;100.00
10470;BME280;5282;47.052;15.458;2023-06-22T02:56:29;97906.16;;;19.64;100.00
10470;BME280;5282;47.052;15.458;2023-06-22T02:58:59;97907.84;;;19.65;100.00
10470;BME280;5282;47.052;15.458;2023-06-22T03:01:27;97915.00;;;19.66;100.00
10470;BME280;5282;47.052;15.458;2023-06-22T03:03:55;97909.31;;;19.68;100.00
10470;BME280;5282;47.052;15.458;2023-06-22T03:06:22;97907.44;;;19.62;100.00
10470;BME280;5282;47.052;15.458;2023-06-22T03:08:59;97903.41;;;19.71;100.00
10470;BME280;5282;47.052;15.458;2023-06-22T03:11:27;97898.19;;;19.69;100.00
10470;BME280;5282;47.052;15.458;2023-06-22T03:13:54;97897.13;;;19.70;100.00
10470;BME280;5282;47.052;15.458;2023-06-22T03:16:21;97900.03;;;19.76;100.00
10470;BME280;5282;47.052;15.458;2023-06-22T03:18:48;97896.25;;;19.77;100.00
10470;BME280;5282;47.052;15.458;2023-06-22T03:21:15;97896.44;;;19.82;100.00
10470;BME280;5282;47.052;15.458;2023-06-22T03:23:43;97891.78;;;19.82;100.00
10470;BME280;5282;47.052;15.458;2023-06-22T03:26:09;97896.44;;;19.88;100.00
10470;BME280;5282;47.052;15.458;2023-06-22T03:28:38;97900.59;;;19.91;100.00
10470;BME280;5282;47.052;15.458;2023-06-22T03:31:05;97900.59;;;19.91;100.00
10470;BME280;5282;47.052;15.458;2023-06-22T03:33:33;97898.84;;;20.03;100.00
10470;BME280;5282;47.052;15.458;2023-06-22T03:36:00;97891.97;;;19.94;100.00
10470;BME280;5282;47.052;15.458;2023-06-22T03:38:27;97895.16;;;19.91;100.00
10470;BME280;5282;47.052;15.458;2023-06-22T03:40:54;97898.66;;;19.98;100.00
10470;BME280;5282;47.052;15.458;2023-06-22T03:43:21;97906.69;;;19.93;100.00
10470;BME280;5282;47.052;15.458;2023-06-22T03:45:49;97908.56;;;19.93;100.00
10470;BME280;5282;47.052;15.458;2023-06-22T03:48:16;97908.97;;;19.96;100.00
10470;BME280;5282;47.052;15.458;2023-06-22T03:50:43;97907.75;;;19.92;100.00
10470;BME280;5282;47.052;15.458;2023-06-22T03:53:10;97901.78;;;20.02;100.00
10470;BME280;5282;47.052;15.458;2023-06-22T03:55:48;97896.25;;;20.15;100.00
10470;BME280;5282;47.052;15.458;2023-06-22T03:58:16;97903.69;;;20.01;100.00
10470;BME280;5282;47.052;15.458;2023-06-22T04:00:45;97907.91;;;19.97;100.00
10470;BME280;5282;47.052;15.458;2023-06-22T04:03:13;97902.41;;;20.04;100.00
10470;BME280;5282;47.052;15.458;2023-06-22T04:05:41;97901.41;;;19.98;100.00
10470;BME280;5282;47.052;15.458;2023-06-22T04:08:08;97902.22;;;20.06;100.00
10470;BME280;5282;47.052;15.458;2023-06-22T04:10:35;97900.72;;;20.03;100.00
10470;BME280;5282;47.052;15.458;2023-06-22T04:13:02;97897.81;;;20.04;100.00
10470;BME280;5282;47.052;15.458;2023-06-22T04:15:29;97897.63;;;19.99;100.00
10470;BME280;5282;47.052;15.458;2023-06-22T04:17:56;97890.03;;;20.01;100.00
10470;BME280;5282;47.052;15.458;2023-06-22T04:20:24;97887.53;;;20.00;100.00
10470;BME280;5282;47.052;15.458;2023-06-22T04:22:52;97887.84;;;20.17;100.00
10470;BME280;5282;47.052;15.458;2023-06-22T04:25:19;97883.25;;;20.11;100.00
10470;BME280;5282;47.052;15.458;2023-06-22T04:27:46;97891.28;;;20.06;100.00
10470;BME280;5282;47.052;15.458;2023-06-22T04:30:14;97890.78;;;20.15;100.00
10470;BME280;5282;47.052;15.458;2023-06-22T04:32:42;97888.66;;;20.17;100.00
10470;BME280;5282;47.052;15.458;2023-06-22T04:35:09;97892.84;;;20.20;100.00
10470;BME280;5282;47.052;15.458;2023-06-22T04:37:37;97892.03;;;20.19;100.00
10470;BME280;5282;47.052;15.458;2023-06-22T04:40:06;97890.72;;;20.22;100.00
10470;BME280;5282;47.052;15.458;2023-06-22T04:42:34;97894.38;;;20.41;100.00
10470;BME280;5282;47.052;15.458;2023-06-22T04:45:02;97881.72;;;20.47;100.00
10470;BME280;5282;47.052;15.458;2023-06-22T04:47:30;97876.91;;;20.42;100.00
10470;BME280;5282;47.052;15.458;2023-06-22T04:49:57;97883.16;;;20.49;100.00
10470;BME280;5282;47.052;15.458;2023-06-22T04:52:24;97886.13;;;20.48;100.00
10470;BME280;5282;47.052;15.458;2023-06-22T04:54:52;97882.91;;;20.58;100.00
10470;BME280;5282;47.052;15.458;2023-06-22T04:57:21;97878.09;;;20.53;100.00
10470;BME280;5282;47.052;15.458;2023-06-22T04:59:58;97882.91;;;20.58;100.00
10470;BME280;5282;47.052;15.458;2023-06-22T05:02:43;97865.63;;;20.57;100.00
10470;BME280;5282;47.052;15.458;2023-06-22T05:05:10;97870.09;;;20.77;100.00
10470;BME280;5282;47.052;15.458;2023-06-22T05:07:39;97867.19;;;20.72;100.00
10470;BME280;5282;47.052;15.458;2023-06-22T05:10:10;97872.56;;;20.85;100.00
10470;BME280;5282;47.052;15.458;2023-06-22T05:12:38;97872.03;;;20.76;100.00
10470;BME280;5282;47.052;15.458;2023-06-22T05:15:06;97870.28;;;20.82;100.00
10470;BME280;5282;47.052;15.458;2023-06-22T05:17:33;97863.44;;;20.91;100.00
10470;BME280;5282;47.052;15.458;2023-06-22T05:20:00;97866.44;;;21.08;100.00
10470;BME280;5282;47.052;15.458;2023-06-22T05:22:29;97860.13;;;21.08;100.00
10470;BME280;5282;47.052;15.458;2023-06-22T05:24:56;97865.00;;;21.06;100.00
10470;BME280;5282;47.052;15.458;2023-06-22T05:27:24;97855.03;;;21.11;100.00
10470;BME280;5282;47.052;15.458;2023-06-22T05:29:51;97854.28;;;21.04;100.00
10470;BME280;5282;47.052;15.458;2023-06-22T05:32:17;97857.53;;;21.13;100.00
10470;BME280;5282;47.052;15.458;2023-06-22T05:34:44;97856.53;;;21.07;100.00
10470;BME280;5282;47.052;15.458;2023-06-22T05:37:11;97857.09;;;21.16;100.00
10470;BME280;5282;47.052;15.458;2023-06-22T05:39:38;97862.47;;;21.23;100.00
10470;BME280;5282;47.052;15.458;2023-06-22T05:42:05;97860.81;;;21.22;100.00
10470;BME280;5282;47.052;15.458;2023-06-22T05:44:33;97863.31;;;21.23;100.00
10470;BME280;5282;47.052;15.458;2023-06-22T05:47:00;97856.47;;;21.33;100.00
10470;BME280;5282;47.052;15.458;2023-06-22T05:49:28;97853.72;;;21.51;100.00
10470;BME280;5282;47.052;15.458;2023-06-22T05:51:58;97855.09;;;21.61;100.00
10470;BME280;5282;47.052;15.458;2023-06-22T05:54:26;97857.63;;;21.62;100.00
10470;BME280;5282;47.052;15.458;2023-06-22T05:56:53;97854.03;;;21.62;100.00
10470;BME280;5282;47.052;15.458;2023-06-22T05:59:20;97862.41;;;21.67;100.00
10470;BME280;5282;47.052;15.458;2023-06-22T06:01:50;97851.22;;;21.80;100.00
10470;BME280;5282;47.052;15.458;2023-06-22T06:04:18;97852.03;;;21.69;100.00
10470;BME280;5282;47.052;15.458;2023-06-22T06:06:45;97853.00;;;21.75;100.00
10470;BME280;5282;47.052;15.458;2023-06-22T06:09:13;97849.59;;;21.79;100.00
10470;BME280;5282;47.052;15.458;2023-06-22T06:11:40;97841.16;;;21.93;100.00
10470;BME280;5282;47.052;15.458;2023-06-22T06:14:07;97844.03;;;21.98;100.00
10470;BME280;5282;47.052;15.458;2023-06-22T06:16:34;97842.81;;;21.94;100.00
10470;BME280;5282;47.052;15.458;2023-06-22T06:19:02;97848.91;;;21.96;100.00
10470;BME280;5282;47.052;15.458;2023-06-22T06:21:29;97842.88;;;22.06;100.00
10470;BME280;5282;47.052;15.458;2023-06-22T06:23:57;97842.63;;;22.07;100.00
10470;BME280;5282;47.052;15.458;2023-06-22T06:26:24;97837.41;;;22.17;100.00
10470;BME280;5282;47.052;15.458;2023-06-22T06:28:55;97831.44;;;22.21;100.00
10470;BME280;5282;47.052;15.458;2023-06-22T06:31:22;97831.84;;;22.36;100.00
10470;BME280;5282;47.052;15.458;2023-06-22T06:33:49;97834.09;;;22.39;100.00
10470;BME280;5282;47.052;15.458;2023-06-22T06:36:17;97828.41;;;22.41;100.00
10470;BME280;5282;47.052;15.458;2023-06-22T06:38:44;97818.75;;;22.50;100.00
10470;BME280;5282;47.052;15.458;2023-06-22T06:41:12;97821.97;;;22.47;100.00
10470;BME280;5282;47.052;15.458;2023-06-22T06:43:39;97813.03;;;22.75;100.00
10470;BME280;5282;47.052;15.458;2023-06-22T06:46:08;97810.75;;;22.72;100.00
10470;BME280;5282;47.052;15.458;2023-06-22T06:48:34;97813.75;;;22.83;100.00
10470;BME280;5282;47.052;15.458;2023-06-22T06:51:01;97819.22;;;22.94;100.00
10470;BME280;5282;47.052;15.458;2023-06-22T06:53:30;97812.66;;;22.84;100.00
10470;BME280;5282;47.052;15.458;2023-06-22T06:55:59;97810.84;;;22.89;100.00
10470;BME280;5282;47.052;15.458;2023-06-22T06:58:26;97806.31;;;23.07;100.00
10470;BME280;5282;47.052;15.458;2023-06-22T07:00:56;97811.19;;;23.17;100.00
10470;BME280;5282;47.052;15.458;2023-06-22T07:03:23;97805.59;;;23.23;100.00
10470;BME280;5282;47.052;15.458;2023-06-22T07:05:50;97811.34;;;23.51;100.00
10470;BME280;5282;47.052;15.458;2023-06-22T07:08:16;97810.16;;;23.47;100.00
10470;BME280;5282;47.052;15.458;2023-06-22T07:10:45;97807.06;;;23.43;100.00
10470;BME280;5282;47.052;15.458;2023-06-22T07:13:11;97806.63;;;23.63;100.00
10470;BME280;5282;47.052;15.458;2023-06-22T07:15:38;97797.91;;;23.95;100.00
10470;BME280;5282;47.052;15.458;2023-06-22T07:18:05;97796.25;;;24.11;100.00
10470;BME280;5282;47.052;15.458;2023-06-22T07:20:35;97790.09;;;24.04;100.00
10470;BME280;5282;47.052;15.458;2023-06-22T07:23:03;97800.03;;;23.93;100.00
10470;BME280;5282;47.052;15.458;2023-06-22T07:25:29;97802.78;;;23.93;100.00
10470;BME280;5282;47.052;15.458;2023-06-22T07:28:00;97799.41;;;24.20;100.00
10470;BME280;5282;47.052;15.458;2023-06-22T07:30:28;97800.06;;;24.27;100.00
10470;BME280;5282;47.052;15.458;2023-06-22T07:32:56;97797.41;;;24.32;100.00
10470;BME280;5282;47.052;15.458;2023-06-22T07:35:23;97789.88;;;24.45;100.00
10470;BME280;5282;47.052;15.458;2023-06-22T07:37:50;97795.31;;;24.57;100.00
10470;BME280;5282;47.052;15.458;2023-06-22T07:40:17;97795.22;;;24.69;100.00
10470;BME280;5282;47.052;15.458;2023-06-22T07:42:44;97796.47;;;24.78;100.00
10470;BME280;5282;47.052;15.458;2023-06-22T07:45:15;97802.50;;;24.97;100.00
10470;BME280;5282;47.052;15.458;2023-06-22T07:47:41;97799.13;;;25.12;100.00
10470;BME280;5282;47.052;15.458;2023-06-22T07:50:09;97791.97;;;25.11;100.00
10470;BME280;5282;47.052;15.458;2023-06-22T07:52:36;97793.22;;;25.25;100.00
10470;BME280;5282;47.052;15.458;2023-06-22T07:55:04;97791.69;;;25.35;100.00
10470;BME280;5282;47.052;15.458;2023-06-22T07:57:31;97795.19;;;25.47;100.00
10470;BME280;5282;47.052;15.458;2023-06-22T08:00:03;97798.94;;;25.63;100.00
10470;BME280;5282;47.052;15.458;2023-06-22T08:02:38;97791.06;;;25.77;100.00
10470;BME280;5282;47.052;15.458;2023-06-22T08:05:06;97793.06;;;25.82;100.00
10470;BME280;5282;47.052;15.458;2023-06-22T08:07:35;97792.78;;;25.83;100.00
10470;BME280;5282;47.052;15.458;2023-06-22T08:10:04;97785.63;;;25.82;100.00
10470;BME280;5282;47.052;15.458;2023-06-22T08:12:31;97788.41;;;25.87;100.00
10470;BME280;5282;47.052;15.458;2023-06-22T08:14:58;97785.25;;;26.01;100.00
10470;BME280;5282;47.052;15.458;2023-06-22T08:17:25;97785.41;;;26.16;100.00
10470;BME280;5282;47.052;15.458;2023-06-22T08:19:53;97773.41;;;26.06;100.00
10470;BME280;5282;47.052;15.458;2023-06-22T08:22:20;97776.44;;;26.04;100.00
10470;BME280;5282;47.052;15.458;2023-06-22T08:24:47;97777.69;;;26.18;100.00
10470;BME280;5282;47.052;15.458;2023-06-22T08:27:14;97776.72;;;26.35;100.00
10470;BME280;5282;47.052;15.458;2023-06-22T08:29:42;97769.66;;;26.55;100.00
10470;BME280;5282;47.052;15.458;2023-06-22T08:32:11;97774.09;;;26.56;100.00
10470;BME280;5282;47.052;15.458;2023-06-22T08:34:38;97772.81;;;26.69;100.00
10470;BME280;5282;47.052;15.458;2023-06-22T08:37:09;97771.69;;;26.70;100.00
10470;BME280;5282;47.052;15.458;2023-06-22T08:39:36;97772.63;;;26.81;100.00
10470;BME280;5282;47.052;15.458;2023-06-22T08:42:03;97772.50;;;26.65;100.00
10470;BME280;5282;47.052;15.458;2023-06-22T08:44:30;97765.16;;;26.81;100.00
10470;BME280;5282;47.052;15.458;2023-06-22T08:46:57;97773.19;;;26.88;100.00
10470;BME280;5282;47.052;15.458;2023-06-22T08:49:24;97767.72;;;26.98;100.00
10470;BME280;5282;47.052;15.458;2023-06-22T08:51:51;97764.19;;;27.03;100.00
10470;BME280;5282;47.052;15.458;2023-06-22T08:54:21;97770.84;;;27.17;100.00
10470;BME280;5282;47.052;15.458;2023-06-22T08:56:48;97767.06;;;27.39;100.00
10470;BME280;5282;47.052;15.458;2023-06-22T08:59:15;97771.78;;;27.38;100.00
10470;BME280;5282;47.052;15.458;2023-06-22T09:01:42;97762.47;;;27.60;100.00
10470;BME280;5282;47.052;15.458;2023-06-22T09:04:14;97763.59;;;27.75;100.00
10470;BME280;5282;47.052;15.458;2023-06-22T09:06:42;97765.22;;;27.55;100.00
10470;BME280;5282;47.052;15.458;2023-06-22T09:09:12;97765.25;;;27.76;100.00
10470;BME280;5282;47.052;15.458;2023-06-22T09:11:41;97760.28;;;27.93;100.00
10470;BME280;5282;47.052;15.458;2023-06-22T09:14:08;97765.25;;;28.01;100.00
10470;BME280;5282;47.052;15.458;2023-06-22T09:16:35;97761.69;;;28.06;100.00
10470;BME280;5282;47.052;15.458;2023-06-22T09:19:02;97755.88;;;27.97;100.00
10470;BME280;5282;47.052;15.458;2023-06-22T09:21:29;97763.06;;;28.03;100.00
10470;BME280;5282;47.052;15.458;2023-06-22T09:23:57;97758.34;;;27.83;100.00
10470;BME280;5282;47.052;15.458;2023-06-22T09:26:24;97753.09;;;27.77;100.00
10470;BME280;5282;47.052;15.458;2023-06-22T09:28:52;97757.56;;;28.09;100.00
10470;BME280;5282;47.052;15.458;2023-06-22T09:31:19;97758.38;;;28.35;100.00
10470;BME280;5282;47.052;15.458;2023-06-22T09:33:51;97757.53;;;28.50;100.00
10470;BME280;5282;47.052;15.458;2023-06-22T09:36:18;97760.28;;;28.55;100.00
10470;BME280;5282;47.052;15.458;2023-06-22T09:38:45;97753.09;;;28.39;100.00
10470;BME280;5282;47.052;15.458;2023-06-22T09:41:12;97745.31;;;28.61;100.00
10470;BME280;5282;47.052;15.458;2023-06-22T09:43:39;97740.88;;;28.81;100.00
10470;BME280;5282;47.052;15.458;2023-06-22T09:46:07;97747.53;;;28.75;100.00
10470;BME280;5282;47.052;15.458;2023-06-22T09:48:35;97740.84;;;28.86;100.00
10470;BME280;5282;47.052;15.458;2023-06-22T09:51:02;97736.47;;;28.75;100.00
10470;BME280;5282;47.052;15.458;2023-06-22T09:53:29;97739.56;;;28.37;100.00
10470;BME280;5282;47.052;15.458;2023-06-22T09:55:56;97740.06;;;28.75;100.00
10470;BME280;5282;47.052;15.458;2023-06-22T09:58:22;97733.66;;;28.90;100.00
10470;BME280;5282;47.052;15.458;2023-06-22T10:00:49;97729.13;;;29.15;100.00
10470;BME280;5282;47.052;15.458;2023-06-22T10:03:17;97730.84;;;28.96;100.00
10470;BME280;5282;47.052;15.458;2023-06-22T10:05:44;97731.13;;;28.94;100.00
10470;BME280;5282;47.052;15.458;2023-06-22T10:08:11;97733.66;;;28.90;100.00
10470;BME280;5282;47.052;15.458;2023-06-22T10:10:38;97737.50;;;28.94;100.00
10470;BME280;5282;47.052;15.458;2023-06-22T10:13:08;97735.00;;;28.93;100.00
10470;BME280;5282;47.052;15.458;2023-06-22T10:15:36;97731.66;;;29.01;100.00
10470;BME280;5282;47.052;15.458;2023-06-22T10:18:03;97729.69;;;29.07;100.00
10470;BME280;5282;47.052;15.458;2023-06-22T10:20:32;97727.97;;;29.21;100.00
10470;BME280;5282;47.052;15.458;2023-06-22T10:22:59;97726.59;;;29.69;100.00
10470;BME280;5282;47.052;15.458;2023-06-22T10:25:26;97717.19;;;30.05;100.00
10470;BME280;5282;47.052;15.458;2023-06-22T10:27:53;97719.31;;;29.78;100.00
10470;BME280;5282;47.052;15.458;2023-06-22T10:30:20;97722.47;;;29.66;100.00
10470;BME280;5282;47.052;15.458;2023-06-22T10:32:47;97717.53;;;29.98;100.00
10470;BME280;5282;47.052;15.458;2023-06-22T10:35:14;97714.41;;;29.65;100.00
10470;BME280;5282;47.052;15.458;2023-06-22T10:37:43;97711.78;;;29.49;100.00
10470;BME280;5282;47.052;15.458;2023-06-22T10:40:12;97707.34;;;29.83;100.00
10470;BME280;5282;47.052;15.458;2023-06-22T10:42:39;97704.44;;;30.04;100.00
10470;BME280;5282;47.052;15.458;2023-06-22T10:45:07;97706.75;;;30.26;100.00
10470;BME280;5282;47.052;15.458;2023-06-22T10:47:35;97705.56;;;30.32;100.00
10470;BME280;5282;47.052;15.458;2023-06-22T10:50:05;97710.97;;;30.77;100.00
10470;BME280;5282;47.052;15.458;2023-06-22T10:52:33;97704.16;;;30.88;100.00
10470;BME280;5282;47.052;15.458;2023-06-22T10:55:01;97699.97;;;31.10;100.00
10470;BME280;5282;47.052;15.458;2023-06-22T10:57:28;97700.44;;;30.98;96.17
10470;BME280;5282;47.052;15.458;2023-06-22T10:59:55;97693.97;;;30.78;100.00
10470;BME280;5282;47.052;15.458;2023-06-22T11:02:23;97692.22;;;31.07;100.00
10470;BME280;5282;47.052;15.458;2023-06-22T11:04:50;97691.19;;;30.78;100.00
10470;BME280;5282;47.052;15.458;2023-06-22T11:07:17;97687.06;;;31.00;100.00
10470;BME280;5282;47.052;15.458;2023-06-22T11:09:44;97684.25;;;30.81;100.00
10470;BME280;5282;47.052;15.458;2023-06-22T11:12:12;97681.72;;;30.31;100.00
10470;BME280;5282;47.052;15.458;2023-06-22T11:14:39;97680.69;;;30.75;100.00
10470;BME280;5282;47.052;15.458;2023-06-22T11:17:06;97669.78;;;31.03;100.00
10470;BME280;5282;47.052;15.458;2023-06-22T11:19:33;97667.59;;;30.52;100.00
10470;BME280;5282;47.052;15.458;2023-06-22T11:22:00;97667.41;;;31.16;100.00
10470;BME280;5282;47.052;15.458;2023-06-22T11:24:27;97670.25;;;31.49;100.00
10470;BME280;5282;47.052;15.458;2023-06-22T11:26:54;97675.91;;;31.63;100.00
10470;BME280;5282;47.052;15.458;2023-06-22T11:29:22;97674.03;;;31.77;100.00
10470;BME280;5282;47.052;15.458;2023-06-22T11:31:49;97680.34;;;31.83;97.62
10470;BME280;5282;47.052;15.458;2023-06-22T11:34:16;97684.91;;;31.93;97.31
10470;BME280;5282;47.052;15.458;2023-06-22T11:36:44;97674.72;;;31.69;88.76
10470;BME280;5282;47.052;15.458;2023-06-22T11:39:12;97674.47;;;31.84;100.00
10470;BME280;5282;47.052;15.458;2023-06-22T11:41:40;97676.41;;;32.17;100.00
10470;BME280;5282;47.052;15.458;2023-06-22T11:44:07;97668.38;;;32.15;90.82
10470;BME280;5282;47.052;15.458;2023-06-22T11:46:35;97666.97;;;31.99;88.98
10470;BME280;5282;47.052;15.458;2023-06-22T11:49:02;97659.59;;;32.08;90.89
10470;BME280;5282;47.052;15.458;2023-06-22T11:51:29;97650.94;;;31.58;99.41
10470;BME280;5282;47.052;15.458;2023-06-22T11:53:57;97655.38;;;31.78;100.00
10470;BME280;5282;47.052;15.458;2023-06-22T11:56:24;97665.28;;;31.84;91.08
10470;BME280;5282;47.052;15.458;2023-06-22T11:58:50;97661.47;;;32.13;99.99
10470;BME280;5282;47.052;15.458;2023-06-22T12:01:18;97658.16;;;32.11;100.00
10470;BME280;5282;47.052;15.458;2023-06-22T12:03:46;97656.59;;;32.38;99.34
10470;BME280;5282;47.052;15.458;2023-06-22T12:06:13;97650.69;;;32.39;93.51
10470;BME280;5282;47.052;15.458;2023-06-22T12:08:40;97648.63;;;32.45;90.25
10470;BME280;5282;47.052;15.458;2023-06-22T12:11:07;97636.06;;;32.00;93.89
10470;BME280;5282;47.052;15.458;2023-06-22T12:13:34;97633.66;;;32.27;98.54
10470;BME280;5282;47.052;15.458;2023-06-22T12:16:01;97633.88;;;32.44;100.00
10470;BME280;5282;47.052;15.458;2023-06-22T12:18:28;97633.78;;;32.36;96.80
10470;BME280;5282;47.052;15.458;2023-06-22T12:20:56;97635.13;;;32.52;96.49
10470;BME280;5282;47.052;15.458;2023-06-22T12:23:23;97635.53;;;32.59;99.13
10470;BME280;5282;47.052;15.458;2023-06-22T12:25:53;97624.53;;;32.07;95.49
10470;BME280;5282;47.052;15.458;2023-06-22T12:28:20;97620.56;;;31.61;100.00
10470;BME280;5282;47.052;15.458;2023-06-22T12:30:47;97623.19;;;31.72;99.75
10470;BME280;5282;47.052;15.458;2023-06-22T12:33:13;97620.81;;;32.12;100.00
10470;BME280;5282;47.052;15.458;2023-06-22T12:35:40;97620.91;;;32.54;91.69
10470;BME280;5282;47.052;15.458;2023-06-22T12:38:08;97611.38;;;32.41;92.02
10470;BME280;5282;47.052;15.458;2023-06-22T12:40:35;97617.84;;;32.22;87.10
10470;BME280;5282;47.052;15.458;2023-06-22T12:43:02;97622.22;;;32.42;94.98
10470;BME280;5282;47.052;15.458;2023-06-22T12:45:29;97618.59;;;32.42;87.02
10470;BME280;5282;47.052;15.458;2023-06-22T12:47:59;97629.44;;;32.57;90.40
10470;BME280;5282;47.052;15.458;2023-06-22T12:50:26;97624.69;;;32.58;94.31
10470;BME280;5282;47.052;15.458;2023-06-22T12:52:53;97620.47;;;32.60;83.87
10470;BME280;5282;47.052;15.458;2023-06-22T12:55:21;97614.47;;;32.53;88.16